sensor_id;sensor_type;location;lat;lon;timestamp;P1;durP1;ratioP1;P2;durP2;ratioP2
9860;SDS011;4969;52.304;4.968;2023-12-28T00:01:59;5.27;;;2.80;;
9860;SDS011;4969;52.304;4.968;2023-12-28T00:04:27;6.23;;;2.43;;
9860;SDS011;4969;52.304;4.968;2023-12-28T00:06:54;7.70;;;2.50;;
9860;SDS011;4969;52.304;4.968;2023-12-28T00:09:21;5.63;;;2.50;;
9860;SDS011;4969;52.304;4.968;2023-12-28T00:11:48;5.90;;;2.63;;
9860;SDS011;4969;52.304;4.968;2023-12-28T00:14:14;7.20;;;2.50;;
9860;SDS011;4969;52.304;4.968;2023-12-28T00:16:41;6.35;;;2.35;;
9860;SDS011;4969;52.304;4.968;2023-12-28T00:19:07;7.25;;;2.53;;
9860;SDS011;4969;52.304;4.968;2023-12-28T00:21:35;7.90;;;2.47;;
9860;SDS011;4969;52.304;4.968;2023-12-28T00:24:02;7.13;;;3.08;;
9860;SDS011;4969;52.304;4.968;2023-12-28T00:26:29;4.80;;;1.80;;
9860;SDS011;4969;52.304;4.968;2023-12-28T00:28:55;11.73;;;2.92;;
9860;SDS011;4969;52.304;4.968;2023-12-28T00:31:22;5.97;;;2.70;;
9860;SDS011;4969;52.304;4.968;2023-12-28T00:33:48;6.70;;;2.05;;
9860;SDS011;4969;52.304;4.968;2023-12-28T00:36:15;7.22;;;2.60;;
9860;SDS011;4969;52.304;4.968;2023-12-28T00:38:43;8.98;;;2.60;;
9860;SDS011;4969;52.304;4.968;2023-12-28T00:41:10;4.28;;;2.13;;
9860;SDS011;4969;52.304;4.968;2023-12-28T00:43:36;5.50;;;2.78;;
9860;SDS011;4969;52.304;4.968;2023-12-28T00:46:03;7.22;;;2.25;;
9860;SDS011;4969;52.304;4.968;2023-12-28T00:48:29;7.63;;;2.30;;
9860;SDS011;4969;52.304;4.968;2023-12-28T00:50:56;5.95;;;2.60;;
9860;SDS011;4969;52.304;4.968;2023-12-28T00:53:24;6.93;;;2.45;;
9860;SDS011;4969;52.304;4.968;2023-12-28T00:55:52;3.13;;;1.73;;
9860;SDS011;4969;52.304;4.968;2023-12-28T00:58:19;3.22;;;1.73;;
9860;SDS011;4969;52.304;4.968;2023-12-28T01:00:45;6.15;;;2.28;;
9860;SDS011;4969;52.304;4.968;2023-12-28T01:03:12;4.80;;;2.33;;
9860;SDS011;4969;52.304;4.968;2023-12-28T01:05:38;4.40;;;2.30;;
9860;SDS011;4969;52.304;4.968;2023-12-28T01:08:05;3.67;;;1.98;;
9860;SDS011;4969;52.304;4.968;2023-12-28T01:10:32;6.22;;;2.40;;
9860;SDS011;4969;52.304;4.968;2023-12-28T01:13:00;6.43;;;2.60;;
9860;SDS011;4969;52.304;4.968;2023-12-28T01:15:26;5.05;;;2.90;;
9860;SDS011;4969;52.304;4.968;2023-12-28T01:17:53;5.00;;;2.08;;
9860;SDS011;4969;52.304;4.968;2023-12-28T01:20:20;6.72;;;2.50;;
9860;SDS011;4969;52.304;4.968;2023-12-28T01:22:46;4.72;;;2.17;;
9860;SDS011;4969;52.304;4.968;2023-12-28T01:25:14;4.47;;;2.25;;
9860;SDS011;4969;52.304;4.968;2023-12-28T01:27:41;4.72;;;2.15;;
9860;SDS011;4969;52.304;4.968;2023-12-28T01:30:09;6.68;;;2.30;;
9860;SDS011;4969;52.304;4.968;2023-12-28T01:32:36;4.55;;;1.70;;
9860;SDS011;4969;52.304;4.968;2023-12-28T01:35:03;4.13;;;1.63;;
9860;SDS011;4969;52.304;4.968;2023-12-28T01:37:30;8.20;;;2.28;;
9860;SDS011;4969;52.304;4.968;2023-12-28T01:39:58;4.07;;;1.65;;
9860;SDS011;4969;52.304;4.968;2023-12-28T01:42:25;4.78;;;2.38;;
9860;SDS011;4969;52.304;4.968;2023-12-28T01:44:52;4.10;;;1.92;;
9860;SDS011;4969;52.304;4.968;2023-12-28T01:47:19;5.30;;;2.08;;
9860;SDS011;4969;52.304;4.968;2023-12-28T01:49:46;3.78;;;1.50;;
9860;SDS011;4969;52.304;4.968;2023-12-28T01:52:13;6.63;;;2.22;;
9860;SDS011;4969;52.304;4.968;2023-12-28T01:54:40;5.72;;;2.30;;
9860;SDS011;4969;52.304;4.968;2023-12-28T01:57:06;5.00;;;1.92;;
9860;SDS011;4969;52.304;4.968;2023-12-28T01:59:33;4.32;;;1.85;;
9860;SDS011;4969;52.304;4.968;2023-12-28T02:02:00;6.03;;;2.10;;
9860;SDS011;4969;52.304;4.968;2023-12-28T02:04:27;6.95;;;2.20;;
9860;SDS011;4969;52.304;4.968;2023-12-28T02:06:55;5.68;;;2.15;;
9860;SDS011;4969;52.304;4.968;2023-12-28T02:09:23;2.92;;;1.80;;
9860;SDS011;4969;52.304;4.968;2023-12-28T02:11:50;4.15;;;2.10;;
9860;SDS011;4969;52.304;4.968;2023-12-28T02:14:16;5.97;;;2.15;;
9860;SDS011;4969;52.304;4.968;2023-12-28T02:16:44;5.05;;;2.05;;
9860;SDS011;4969;52.304;4.968;2023-12-28T02:19:16;4.75;;;2.20;;
9860;SDS011;4969;52.304;4.968;2023-12-28T02:21:51;3.28;;;1.77;;
9860;SDS011;4969;52.304;4.968;2023-12-28T02:24:18;2.72;;;1.63;;
9860;SDS011;4969;52.304;4.968;2023-12-28T02:26:46;3.88;;;1.90;;
9860;SDS011;4969;52.304;4.968;2023-12-28T02:29:12;4.30;;;1.92;;
9860;SDS011;4969;52.304;4.968;2023-12-28T02:31:41;6.70;;;2.20;;
9860;SDS011;4969;52.304;4.968;2023-12-28T02:34:12;4.60;;;2.40;;
9860;SDS011;4969;52.304;4.968;2023-12-28T02:36:44;4.80;;;2.08;;
9860;SDS011;4969;52.304;4.968;2023-12-28T02:39:14;6.60;;;2.08;;
9860;SDS011;4969;52.304;4.968;2023-12-28T02:41:42;4.63;;;2.30;;
9860;SDS011;4969;52.304;4.968;2023-12-28T02:44:11;5.53;;;2.10;;
9860;SDS011;4969;52.304;4.968;2023-12-28T02:46:38;4.32;;;1.60;;
9860;SDS011;4969;52.304;4.968;2023-12-28T02:49:05;5.32;;;2.25;;
9860;SDS011;4969;52.304;4.968;2023-12-28T02:51:31;5.25;;;2.13;;
9860;SDS011;4969;52.304;4.968;2023-12-28T02:53:58;3.00;;;1.80;;
9860;SDS011;4969;52.304;4.968;2023-12-28T02:56:25;4.53;;;2.30;;
9860;SDS011;4969;52.304;4.968;2023-12-28T02:58:51;7.15;;;2.00;;
9860;SDS011;4969;52.304;4.968;2023-12-28T03:01:19;3.70;;;2.33;;
9860;SDS011;4969;52.304;4.968;2023-12-28T03:03:45;3.03;;;1.83;;
9860;SDS011;4969;52.304;4.968;2023-12-28T03:06:12;5.00;;;2.10;;
9860;SDS011;4969;52.304;4.968;2023-12-28T03:08:38;2.17;;;1.17;;
9860;SDS011;4969;52.304;4.968;2023-12-28T03:11:05;6.78;;;2.00;;
9860;SDS011;4969;52.304;4.968;2023-12-28T03:13:32;6.55;;;2.30;;
9860;SDS011;4969;52.304;4.968;2023-12-28T03:15:58;4.70;;;2.20;;
9860;SDS011;4969;52.304;4.968;2023-12-28T03:18:26;6.25;;;2.25;;
9860;SDS011;4969;52.304;4.968;2023-12-28T03:20:52;3.28;;;1.45;;
9860;SDS011;4969;52.304;4.968;2023-12-28T03:23:19;4.93;;;2.22;;
9860;SDS011;4969;52.304;4.968;2023-12-28T03:25:46;6.25;;;2.30;;
9860;SDS011;4969;52.304;4.968;2023-12-28T03:28:13;5.72;;;2.00;;
9860;SDS011;4969;52.304;4.968;2023-12-28T03:30:40;3.58;;;1.60;;
9860;SDS011;4969;52.304;4.968;2023-12-28T03:33:06;4.85;;;2.15;;
9860;SDS011;4969;52.304;4.968;2023-12-28T03:35:34;5.10;;;1.97;;
9860;SDS011;4969;52.304;4.968;2023-12-28T03:38:01;5.35;;;2.13;;
9860;SDS011;4969;52.304;4.968;2023-12-28T03:40:27;7.03;;;2.22;;
9860;SDS011;4969;52.304;4.968;2023-12-28T03:42:54;5.25;;;2.03;;
9860;SDS011;4969;52.304;4.968;2023-12-28T03:45:20;5.72;;;1.63;;
9860;SDS011;4969;52.304;4.968;2023-12-28T03:47:47;6.63;;;2.43;;
9860;SDS011;4969;52.304;4.968;2023-12-28T03:50:13;7.63;;;2.15;;
9860;SDS011;4969;52.304;4.968;2023-12-28T03:52:42;5.13;;;2.15;;
9860;SDS011;4969;52.304;4.968;2023-12-28T03:55:08;7.10;;;2.27;;
9860;SDS011;4969;52.304;4.968;2023-12-28T03:57:35;7.07;;;2.00;;
9860;SDS011;4969;52.304;4.968;2023-12-28T04:00:01;5.25;;;1.95;;
9860;SDS011;4969;52.304;4.968;2023-12-28T04:02:28;5.40;;;2.23;;
9860;SDS011;4969;52.304;4.968;2023-12-28T04:04:56;5.55;;;2.33;;
9860;SDS011;4969;52.304;4.968;2023-12-28T04:07:23;10.10;;;2.85;;
9860;SDS011;4969;52.304;4.968;2023-12-28T04:09:51;5.90;;;2.17;;
9860;SDS011;4969;52.304;4.968;2023-12-28T04:12:18;5.25;;;1.98;;
9860;SDS011;4969;52.304;4.968;2023-12-28T04:14:44;3.92;;;1.80;;
9860;SDS011;4969;52.304;4.968;2023-12-28T04:17:11;7.93;;;2.78;;
9860;SDS011;4969;52.304;4.968;2023-12-28T04:19:38;8.68;;;2.25;;
9860;SDS011;4969;52.304;4.968;2023-12-28T04:22:04;6.57;;;1.95;;
9860;SDS011;4969;52.304;4.968;2023-12-28T04:24:31;6.60;;;1.92;;
9860;SDS011;4969;52.304;4.968;2023-12-28T04:26:59;5.15;;;2.00;;
9860;SDS011;4969;52.304;4.968;2023-12-28T04:29:25;9.68;;;2.72;;
9860;SDS011;4969;52.304;4.968;2023-12-28T04:31:52;6.13;;;2.07;;
9860;SDS011;4969;52.304;4.968;2023-12-28T04:34:22;8.05;;;1.88;;
9860;SDS011;4969;52.304;4.968;2023-12-28T04:36:49;5.88;;;1.58;;
9860;SDS011;4969;52.304;4.968;2023-12-28T04:39:17;9.38;;;2.38;;
9860;SDS011;4969;52.304;4.968;2023-12-28T04:41:44;4.88;;;2.13;;
9860;SDS011;4969;52.304;4.968;2023-12-28T04:44:12;9.27;;;3.13;;
9860;SDS011;4969;52.304;4.968;2023-12-28T04:46:38;7.50;;;2.47;;
9860;SDS011;4969;52.304;4.968;2023-12-28T04:49:07;12.17;;;2.90;;
9860;SDS011;4969;52.304;4.968;2023-12-28T04:51:34;8.63;;;2.43;;
9860;SDS011;4969;52.304;4.968;2023-12-28T04:54:00;5.33;;;2.23;;
9860;SDS011;4969;52.304;4.968;2023-12-28T04:56:27;5.05;;;1.92;;
9860;SDS011;4969;52.304;4.968;2023-12-28T04:58:54;9.00;;;2.63;;
9860;SDS011;4969;52.304;4.968;2023-12-28T05:01:21;7.13;;;2.15;;
9860;SDS011;4969;52.304;4.968;2023-12-28T05:03:49;7.43;;;2.53;;
9860;SDS011;4969;52.304;4.968;2023-12-28T05:06:15;5.28;;;1.58;;
9860;SDS011;4969;52.304;4.968;2023-12-28T05:08:42;8.88;;;2.25;;
9860;SDS011;4969;52.304;4.968;2023-12-28T05:11:09;8.50;;;2.42;;
9860;SDS011;4969;52.304;4.968;2023-12-28T05:13:35;8.77;;;2.40;;
9860;SDS011;4969;52.304;4.968;2023-12-28T05:16:02;6.95;;;2.72;;
9860;SDS011;4969;52.304;4.968;2023-12-28T05:18:30;6.87;;;2.53;;
9860;SDS011;4969;52.304;4.968;2023-12-28T05:20:56;8.18;;;3.00;;
9860;SDS011;4969;52.304;4.968;2023-12-28T05:23:23;13.40;;;3.30;;
9860;SDS011;4969;52.304;4.968;2023-12-28T05:25:49;8.80;;;2.78;;
9860;SDS011;4969;52.304;4.968;2023-12-28T05:28:16;7.93;;;2.50;;
9860;SDS011;4969;52.304;4.968;2023-12-28T05:30:42;6.73;;;2.33;;
9860;SDS011;4969;52.304;4.968;2023-12-28T05:33:09;9.02;;;2.63;;
9860;SDS011;4969;52.304;4.968;2023-12-28T05:35:37;12.60;;;3.00;;
9860;SDS011;4969;52.304;4.968;2023-12-28T05:38:04;9.43;;;2.60;;
9860;SDS011;4969;52.304;4.968;2023-12-28T05:40:30;8.73;;;2.53;;
9860;SDS011;4969;52.304;4.968;2023-12-28T05:42:57;6.47;;;2.25;;
9860;SDS011;4969;52.304;4.968;2023-12-28T05:45:23;13.23;;;2.93;;
9860;SDS011;4969;52.304;4.968;2023-12-28T05:47:50;5.40;;;2.75;;
9860;SDS011;4969;52.304;4.968;2023-12-28T05:50:17;10.67;;;2.87;;
9860;SDS011;4969;52.304;4.968;2023-12-28T05:52:44;12.65;;;3.33;;
9860;SDS011;4969;52.304;4.968;2023-12-28T05:55:11;8.90;;;2.57;;
9860;SDS011;4969;52.304;4.968;2023-12-28T05:57:38;9.73;;;2.50;;
9860;SDS011;4969;52.304;4.968;2023-12-28T06:00:05;6.75;;;1.63;;
9860;SDS011;4969;52.304;4.968;2023-12-28T06:02:32;10.53;;;2.57;;
9860;SDS011;4969;52.304;4.968;2023-12-28T06:04:58;12.33;;;2.80;;
9860;SDS011;4969;52.304;4.968;2023-12-28T06:07:25;12.90;;;3.80;;
9860;SDS011;4969;52.304;4.968;2023-12-28T06:09:53;11.27;;;3.33;;
9860;SDS011;4969;52.304;4.968;2023-12-28T06:12:19;7.10;;;2.60;;
9860;SDS011;4969;52.304;4.968;2023-12-28T06:14:46;13.77;;;3.20;;
9860;SDS011;4969;52.304;4.968;2023-12-28T06:17:12;14.35;;;3.45;;
9860;SDS011;4969;52.304;4.968;2023-12-28T06:19:40;11.23;;;3.10;;
9860;SDS011;4969;52.304;4.968;2023-12-28T06:22:06;11.38;;;3.63;;
9860;SDS011;4969;52.304;4.968;2023-12-28T06:24:33;10.75;;;3.13;;
9860;SDS011;4969;52.304;4.968;2023-12-28T06:27:05;10.57;;;2.78;;
9860;SDS011;4969;52.304;4.968;2023-12-28T06:29:32;9.50;;;2.50;;
9860;SDS011;4969;52.304;4.968;2023-12-28T06:31:59;11.80;;;2.97;;
9860;SDS011;4969;52.304;4.968;2023-12-28T06:34:25;13.63;;;3.10;;
9860;SDS011;4969;52.304;4.968;2023-12-28T06:36:52;9.13;;;2.20;;
9860;SDS011;4969;52.304;4.968;2023-12-28T06:39:18;15.00;;;3.70;;
9860;SDS011;4969;52.304;4.968;2023-12-28T06:41:46;13.17;;;3.90;;
9860;SDS011;4969;52.304;4.968;2023-12-28T06:44:14;11.80;;;3.10;;
9860;SDS011;4969;52.304;4.968;2023-12-28T06:46:41;14.00;;;3.83;;
9860;SDS011;4969;52.304;4.968;2023-12-28T06:49:08;13.43;;;3.10;;
9860;SDS011;4969;52.304;4.968;2023-12-28T06:51:34;10.83;;;3.37;;
9860;SDS011;4969;52.304;4.968;2023-12-28T06:54:01;11.33;;;3.73;;
9860;SDS011;4969;52.304;4.968;2023-12-28T06:56:27;11.20;;;2.80;;
9860;SDS011;4969;52.304;4.968;2023-12-28T06:58:54;11.37;;;3.33;;
9860;SDS011;4969;52.304;4.968;2023-12-28T07:01:22;13.60;;;3.45;;
9860;SDS011;4969;52.304;4.968;2023-12-28T07:03:49;11.18;;;3.33;;
9860;SDS011;4969;52.304;4.968;2023-12-28T07:06:15;18.20;;;4.53;;
9860;SDS011;4969;52.304;4.968;2023-12-28T07:08:42;15.77;;;4.03;;
9860;SDS011;4969;52.304;4.968;2023-12-28T07:11:09;9.57;;;2.93;;
9860;SDS011;4969;52.304;4.968;2023-12-28T07:13:36;15.63;;;3.40;;
9860;SDS011;4969;52.304;4.968;2023-12-28T07:16:03;14.25;;;3.33;;
9860;SDS011;4969;52.304;4.968;2023-12-28T07:18:34;10.35;;;3.38;;
9860;SDS011;4969;52.304;4.968;2023-12-28T07:21:00;14.63;;;3.77;;
9860;SDS011;4969;52.304;4.968;2023-12-28T07:23:27;13.55;;;3.45;;
9860;SDS011;4969;52.304;4.968;2023-12-28T07:25:53;9.73;;;2.37;;
9860;SDS011;4969;52.304;4.968;2023-12-28T07:28:20;15.57;;;3.85;;
9860;SDS011;4969;52.304;4.968;2023-12-28T07:30:46;18.23;;;4.70;;
9860;SDS011;4969;52.304;4.968;2023-12-28T07:33:13;12.13;;;3.73;;
9860;SDS011;4969;52.304;4.968;2023-12-28T07:35:41;17.17;;;3.75;;
9860;SDS011;4969;52.304;4.968;2023-12-28T07:38:07;15.60;;;4.10;;
9860;SDS011;4969;52.304;4.968;2023-12-28T07:40:34;16.23;;;4.33;;
9860;SDS011;4969;52.304;4.968;2023-12-28T07:43:00;12.63;;;3.47;;
9860;SDS011;4969;52.304;4.968;2023-12-28T07:45:27;15.15;;;4.47;;
9860;SDS011;4969;52.304;4.968;2023-12-28T07:47:54;16.17;;;4.13;;
9860;SDS011;4969;52.304;4.968;2023-12-28T07:50:20;11.70;;;3.15;;
9860;SDS011;4969;52.304;4.968;2023-12-28T07:52:48;7.03;;;2.17;;
9860;SDS011;4969;52.304;4.968;2023-12-28T07:55:15;14.57;;;3.70;;
9860;SDS011;4969;52.304;4.968;2023-12-28T07:57:41;11.52;;;2.95;;
9860;SDS011;4969;52.304;4.968;2023-12-28T08:00:08;9.27;;;2.83;;
9860;SDS011;4969;52.304;4.968;2023-12-28T08:02:35;13.67;;;3.30;;
9860;SDS011;4969;52.304;4.968;2023-12-28T08:05:02;12.90;;;3.58;;
9860;SDS011;4969;52.304;4.968;2023-12-28T08:07:29;15.57;;;4.38;;
9860;SDS011;4969;52.304;4.968;2023-12-28T08:09:57;9.57;;;3.07;;
9860;SDS011;4969;52.304;4.968;2023-12-28T08:12:24;13.77;;;4.10;;
9860;SDS011;4969;52.304;4.968;2023-12-28T08:14:52;18.77;;;4.63;;
9860;SDS011;4969;52.304;4.968;2023-12-28T08:17:19;13.30;;;3.88;;
9860;SDS011;4969;52.304;4.968;2023-12-28T08:19:45;14.00;;;3.40;;
9860;SDS011;4969;52.304;4.968;2023-12-28T08:22:12;16.70;;;4.27;;
9860;SDS011;4969;52.304;4.968;2023-12-28T08:24:38;12.40;;;3.33;;
9860;SDS011;4969;52.304;4.968;2023-12-28T08:27:07;12.77;;;3.78;;
9860;SDS011;4969;52.304;4.968;2023-12-28T08:29:33;14.38;;;3.80;;
9860;SDS011;4969;52.304;4.968;2023-12-28T08:32:00;12.88;;;3.40;;
9860;SDS011;4969;52.304;4.968;2023-12-28T08:34:26;16.35;;;4.15;;
9860;SDS011;4969;52.304;4.968;2023-12-28T08:36:53;13.82;;;3.63;;
9860;SDS011;4969;52.304;4.968;2023-12-28T08:39:19;16.05;;;3.47;;
9860;SDS011;4969;52.304;4.968;2023-12-28T08:41:46;11.57;;;3.05;;
9860;SDS011;4969;52.304;4.968;2023-12-28T08:44:14;11.32;;;3.17;;
9860;SDS011;4969;52.304;4.968;2023-12-28T08:46:40;10.45;;;2.85;;
9860;SDS011;4969;52.304;4.968;2023-12-28T08:49:07;10.25;;;2.47;;
9860;SDS011;4969;52.304;4.968;2023-12-28T08:51:33;17.33;;;4.32;;
9860;SDS011;4969;52.304;4.968;2023-12-28T08:54:00;11.65;;;3.03;;
9860;SDS011;4969;52.304;4.968;2023-12-28T08:56:27;11.63;;;3.72;;
9860;SDS011;4969;52.304;4.968;2023-12-28T08:58:53;12.00;;;3.70;;
9860;SDS011;4969;52.304;4.968;2023-12-28T09:01:22;13.80;;;3.42;;
9860;SDS011;4969;52.304;4.968;2023-12-28T09:03:50;13.93;;;3.58;;
9860;SDS011;4969;52.304;4.968;2023-12-28T09:06:18;11.37;;;3.23;;
9860;SDS011;4969;52.304;4.968;2023-12-28T09:08:45;8.70;;;2.78;;
9860;SDS011;4969;52.304;4.968;2023-12-28T09:11:13;15.80;;;4.30;;
9860;SDS011;4969;52.304;4.968;2023-12-28T09:13:40;10.52;;;2.92;;
9860;SDS011;4969;52.304;4.968;2023-12-28T09:16:07;13.80;;;3.83;;
9860;SDS011;4969;52.304;4.968;2023-12-28T09:18:38;12.60;;;3.53;;
9860;SDS011;4969;52.304;4.968;2023-12-28T09:21:05;11.27;;;3.35;;
9860;SDS011;4969;52.304;4.968;2023-12-28T09:23:33;12.97;;;3.53;;
9860;SDS011;4969;52.304;4.968;2023-12-28T09:26:00;14.03;;;3.27;;
9860;SDS011;4969;52.304;4.968;2023-12-28T09:28:28;12.37;;;3.23;;
9860;SDS011;4969;52.304;4.968;2023-12-28T09:30:55;8.40;;;2.83;;
9860;SDS011;4969;52.304;4.968;2023-12-28T09:33:21;14.10;;;3.90;;
9860;SDS011;4969;52.304;4.968;2023-12-28T09:35:49;13.30;;;3.83;;
9860;SDS011;4969;52.304;4.968;2023-12-28T09:38:16;15.23;;;3.72;;
9860;SDS011;4969;52.304;4.968;2023-12-28T09:40:43;11.45;;;3.15;;
9860;SDS011;4969;52.304;4.968;2023-12-28T09:43:13;12.10;;;3.40;;
9860;SDS011;4969;52.304;4.968;2023-12-28T09:45:41;16.55;;;4.10;;
9860;SDS011;4969;52.304;4.968;2023-12-28T09:48:08;14.20;;;3.38;;
9860;SDS011;4969;52.304;4.968;2023-12-28T09:50:35;16.27;;;4.05;;
9860;SDS011;4969;52.304;4.968;2023-12-28T09:53:03;11.05;;;3.45;;
9860;SDS011;4969;52.304;4.968;2023-12-28T09:55:30;12.65;;;3.58;;
9860;SDS011;4969;52.304;4.968;2023-12-28T09:57:56;14.05;;;3.50;;
9860;SDS011;4969;52.304;4.968;2023-12-28T10:00:25;13.88;;;3.47;;
9860;SDS011;4969;52.304;4.968;2023-12-28T10:02:51;13.88;;;3.92;;
9860;SDS011;4969;52.304;4.968;2023-12-28T10:05:18;7.43;;;2.78;;
9860;SDS011;4969;52.304;4.968;2023-12-28T10:07:45;13.02;;;3.10;;
9860;SDS011;4969;52.304;4.968;2023-12-28T10:10:14;15.10;;;3.67;;
9860;SDS011;4969;52.304;4.968;2023-12-28T10:12:41;12.23;;;3.70;;
9860;SDS011;4969;52.304;4.968;2023-12-28T10:15:08;14.88;;;3.85;;
9860;SDS011;4969;52.304;4.968;2023-12-28T10:17:35;13.50;;;4.25;;
9860;SDS011;4969;52.304;4.968;2023-12-28T10:20:02;14.45;;;3.80;;
9860;SDS011;4969;52.304;4.968;2023-12-28T10:22:29;11.98;;;3.33;;
9860;SDS011;4969;52.304;4.968;2023-12-28T10:24:56;15.88;;;3.42;;
9860;SDS011;4969;52.304;4.968;2023-12-28T10:27:25;10.95;;;3.55;;
9860;SDS011;4969;52.304;4.968;2023-12-28T10:29:52;16.98;;;3.70;;
9860;SDS011;4969;52.304;4.968;2023-12-28T10:32:20;19.83;;;3.90;;
9860;SDS011;4969;52.304;4.968;2023-12-28T10:34:48;13.63;;;4.00;;
9860;SDS011;4969;52.304;4.968;2023-12-28T10:37:14;14.77;;;3.72;;
9860;SDS011;4969;52.304;4.968;2023-12-28T10:39:43;14.68;;;3.38;;
9860;SDS011;4969;52.304;4.968;2023-12-28T10:42:16;13.77;;;3.90;;
9860;SDS011;4969;52.304;4.968;2023-12-28T10:44:53;13.23;;;3.33;;
9860;SDS011;4969;52.304;4.968;2023-12-28T10:47:25;14.63;;;4.07;;
9860;SDS011;4969;52.304;4.968;2023-12-28T10:49:53;14.82;;;3.35;;
9860;SDS011;4969;52.304;4.968;2023-12-28T10:52:21;11.38;;;3.90;;
9860;SDS011;4969;52.304;4.968;2023-12-28T10:54:56;10.15;;;2.78;;
9860;SDS011;4969;52.304;4.968;2023-12-28T10:57:35;12.48;;;3.70;;
9860;SDS011;4969;52.304;4.968;2023-12-28T11:00:14;11.70;;;2.88;;
9860;SDS011;4969;52.304;4.968;2023-12-28T11:02:45;9.55;;;3.10;;
9860;SDS011;4969;52.304;4.968;2023-12-28T11:05:14;14.93;;;4.18;;
9860;SDS011;4969;52.304;4.968;2023-12-28T11:07:42;14.02;;;3.53;;
9860;SDS011;4969;52.304;4.968;2023-12-28T11:10:09;13.98;;;3.85;;
9860;SDS011;4969;52.304;4.968;2023-12-28T11:12:36;17.33;;;4.57;;
9860;SDS011;4969;52.304;4.968;2023-12-28T11:15:04;15.40;;;4.32;;
9860;SDS011;4969;52.304;4.968;2023-12-28T11:17:34;16.00;;;3.97;;
9860;SDS011;4969;52.304;4.968;2023-12-28T11:20:02;15.00;;;3.55;;
9860;SDS011;4969;52.304;4.968;2023-12-28T11:22:30;13.63;;;3.88;;
9860;SDS011;4969;52.304;4.968;2023-12-28T11:24:58;9.93;;;3.42;;
9860;SDS011;4969;52.304;4.968;2023-12-28T11:27:24;11.75;;;3.63;;
9860;SDS011;4969;52.304;4.968;2023-12-28T11:29:51;11.13;;;3.22;;
9860;SDS011;4969;52.304;4.968;2023-12-28T11:32:19;14.48;;;4.20;;
9860;SDS011;4969;52.304;4.968;2023-12-28T11:34:48;12.80;;;3.85;;
9860;SDS011;4969;52.304;4.968;2023-12-28T11:37:23;13.50;;;3.33;;
9860;SDS011;4969;52.304;4.968;2023-12-28T11:39:51;11.30;;;3.30;;
9860;SDS011;4969;52.304;4.968;2023-12-28T11:42:19;18.27;;;4.43;;
9860;SDS011;4969;52.304;4.968;2023-12-28T11:44:47;19.33;;;4.63;;
9860;SDS011;4969;52.304;4.968;2023-12-28T11:47:15;10.80;;;3.00;;
9860;SDS011;4969;52.304;4.968;2023-12-28T11:49:42;12.00;;;3.80;;
9860;SDS011;4969;52.304;4.968;2023-12-28T11:52:21;17.02;;;4.10;;
9860;SDS011;4969;52.304;4.968;2023-12-28T11:54:49;14.13;;;3.13;;
9860;SDS011;4969;52.304;4.968;2023-12-28T11:57:16;13.27;;;3.60;;
9860;SDS011;4969;52.304;4.968;2023-12-28T11:59:43;15.55;;;3.75;;
9860;SDS011;4969;52.304;4.968;2023-12-28T12:02:09;8.00;;;2.83;;
9860;SDS011;4969;52.304;4.968;2023-12-28T12:04:37;11.38;;;2.90;;
9860;SDS011;4969;52.304;4.968;2023-12-28T12:07:03;9.88;;;2.58;;
9860;SDS011;4969;52.304;4.968;2023-12-28T12:09:31;19.45;;;4.47;;
9860;SDS011;4969;52.304;4.968;2023-12-28T12:11:59;15.15;;;4.00;;
9860;SDS011;4969;52.304;4.968;2023-12-28T12:14:26;10.82;;;3.50;;
9860;SDS011;4969;52.304;4.968;2023-12-28T12:16:53;15.80;;;4.32;;
9860;SDS011;4969;52.304;4.968;2023-12-28T12:19:21;16.70;;;4.10;;
9860;SDS011;4969;52.304;4.968;2023-12-28T12:21:48;12.43;;;3.65;;
9860;SDS011;4969;52.304;4.968;2023-12-28T12:24:16;13.60;;;3.60;;
9860;SDS011;4969;52.304;4.968;2023-12-28T12:26:45;8.93;;;2.53;;
9860;SDS011;4969;52.304;4.968;2023-12-28T12:29:11;11.38;;;3.67;;
9860;SDS011;4969;52.304;4.968;2023-12-28T12:31:39;11.95;;;3.50;;
9860;SDS011;4969;52.304;4.968;2023-12-28T12:34:07;11.45;;;2.83;;
9860;SDS011;4969;52.304;4.968;2023-12-28T12:36:34;15.02;;;3.45;;
9860;SDS011;4969;52.304;4.968;2023-12-28T12:39:01;16.83;;;4.57;;
9860;SDS011;4969;52.304;4.968;2023-12-28T12:41:29;14.73;;;3.95;;
9860;SDS011;4969;52.304;4.968;2023-12-28T12:43:58;18.48;;;4.20;;
9860;SDS011;4969;52.304;4.968;2023-12-28T12:46:25;11.35;;;3.63;;
9860;SDS011;4969;52.304;4.968;2023-12-28T12:48:55;15.55;;;4.50;;
9860;SDS011;4969;52.304;4.968;2023-12-28T12:51:22;8.35;;;2.75;;
9860;SDS011;4969;52.304;4.968;2023-12-28T12:53:49;13.45;;;3.40;;
9860;SDS011;4969;52.304;4.968;2023-12-28T12:56:15;6.13;;;1.85;;
9860;SDS011;4969;52.304;4.968;2023-12-28T12:58:43;9.75;;;3.33;;
9860;SDS011;4969;52.304;4.968;2023-12-28T13:01:11;12.43;;;3.33;;
9860;SDS011;4969;52.304;4.968;2023-12-28T13:03:37;10.45;;;4.10;;
9860;SDS011;4969;52.304;4.968;2023-12-28T13:06:04;15.18;;;4.38;;
9860;SDS011;4969;52.304;4.968;2023-12-28T13:08:31;10.75;;;2.83;;
9860;SDS011;4969;52.304;4.968;2023-12-28T13:10:57;14.13;;;3.58;;
9860;SDS011;4969;52.304;4.968;2023-12-28T13:13:24;13.50;;;3.78;;
9860;SDS011;4969;52.304;4.968;2023-12-28T13:15:50;14.18;;;4.00;;
9860;SDS011;4969;52.304;4.968;2023-12-28T13:18:18;10.88;;;3.47;;
9860;SDS011;4969;52.304;4.968;2023-12-28T13:20:45;14.88;;;3.50;;
9860;SDS011;4969;52.304;4.968;2023-12-28T13:23:11;13.27;;;3.83;;
9860;SDS011;4969;52.304;4.968;2023-12-28T13:25:38;13.40;;;3.58;;
9860;SDS011;4969;52.304;4.968;2023-12-28T13:28:05;17.45;;;4.30;;
9860;SDS011;4969;52.304;4.968;2023-12-28T13:30:31;11.80;;;3.15;;
9860;SDS011;4969;52.304;4.968;2023-12-28T13:32:58;11.80;;;4.00;;
9860;SDS011;4969;52.304;4.968;2023-12-28T13:35:26;14.05;;;4.00;;
9860;SDS011;4969;52.304;4.968;2023-12-28T13:37:53;12.68;;;3.95;;
9860;SDS011;4969;52.304;4.968;2023-12-28T13:40:20;10.88;;;3.35;;
9860;SDS011;4969;52.304;4.968;2023-12-28T13:42:46;15.70;;;4.22;;
9860;SDS011;4969;52.304;4.968;2023-12-28T13:45:13;13.38;;;3.97;;
9860;SDS011;4969;52.304;4.968;2023-12-28T13:47:39;16.25;;;3.92;;
9860;SDS011;4969;52.304;4.968;2023-12-28T13:50:06;12.60;;;3.03;;
9860;SDS011;4969;52.304;4.968;2023-12-28T13:52:35;11.45;;;3.45;;
9860;SDS011;4969;52.304;4.968;2023-12-28T13:55:01;14.25;;;3.30;;
9860;SDS011;4969;52.304;4.968;2023-12-28T13:57:28;10.80;;;3.67;;
9860;SDS011;4969;52.304;4.968;2023-12-28T13:59:55;12.93;;;3.13;;
9860;SDS011;4969;52.304;4.968;2023-12-28T14:02:25;7.53;;;2.30;;
9860;SDS011;4969;52.304;4.968;2023-12-28T14:04:51;13.63;;;3.83;;
9860;SDS011;4969;52.304;4.968;2023-12-28T14:07:19;17.63;;;3.30;;
9860;SDS011;4969;52.304;4.968;2023-12-28T14:09:47;15.35;;;4.15;;
9860;SDS011;4969;52.304;4.968;2023-12-28T14:12:13;11.95;;;3.10;;
9860;SDS011;4969;52.304;4.968;2023-12-28T14:14:40;9.63;;;3.20;;
9860;SDS011;4969;52.304;4.968;2023-12-28T14:17:06;13.27;;;3.80;;
9860;SDS011;4969;52.304;4.968;2023-12-28T14:19:33;10.85;;;2.75;;
9860;SDS011;4969;52.304;4.968;2023-12-28T14:22:00;13.70;;;3.80;;
9860;SDS011;4969;52.304;4.968;2023-12-28T14:24:27;15.50;;;4.25;;
9860;SDS011;4969;52.304;4.968;2023-12-28T14:26:55;15.10;;;3.33;;
9860;SDS011;4969;52.304;4.968;2023-12-28T14:29:22;15.20;;;4.70;;
9860;SDS011;4969;52.304;4.968;2023-12-28T14:31:50;11.25;;;3.63;;
9860;SDS011;4969;52.304;4.968;2023-12-28T14:34:17;8.88;;;2.80;;
9860;SDS011;4969;52.304;4.968;2023-12-28T14:36:44;11.30;;;3.30;;
9860;SDS011;4969;52.304;4.968;2023-12-28T14:39:15;8.32;;;2.78;;
9860;SDS011;4969;52.304;4.968;2023-12-28T14:41:43;11.70;;;3.25;;
9860;SDS011;4969;52.304;4.968;2023-12-28T14:44:11;14.38;;;3.75;;
9860;SDS011;4969;52.304;4.968;2023-12-28T14:46:38;10.23;;;2.88;;
9860;SDS011;4969;52.304;4.968;2023-12-28T14:49:05;13.05;;;3.50;;
9860;SDS011;4969;52.304;4.968;2023-12-28T14:51:32;15.00;;;3.40;;
9860;SDS011;4969;52.304;4.968;2023-12-28T14:53:59;11.68;;;3.30;;
9860;SDS011;4969;52.304;4.968;2023-12-28T14:56:25;7.30;;;3.17;;
9860;SDS011;4969;52.304;4.968;2023-12-28T14:58:52;11.60;;;3.65;;
9860;SDS011;4969;52.304;4.968;2023-12-28T15:01:20;11.18;;;3.65;;
9860;SDS011;4969;52.304;4.968;2023-12-28T15:03:47;14.75;;;3.65;;
9860;SDS011;4969;52.304;4.968;2023-12-28T15:06:14;11.98;;;3.45;;
9860;SDS011;4969;52.304;4.968;2023-12-28T15:08:41;14.00;;;3.75;;